Time;durP1;ratioP1;P1;durP2;ratioP2;P2;SDS_P1;SDS_P2;PMS_P1;PMS_P2;Temp;Humidity;BMP_temperature;BMP_pressure;BME280_temperature;BME280_humidity;BME280_pressure;Samples;Min_cycle;Max_cycle;Signal;HPM_P1;HPM_P2
2024/01/18 00:02:24;;;;;;;12.73;9.70;;;3.90;99.90;;;;;;968974;146;27226;-82
2024/01/18 00:04:51;;;;;;;11.23;9.37;;;3.90;99.90;;;;;;967823;146;27344;-79
2024/01/18 00:07:18;;;;;;;11.37;10.17;;;3.90;99.90;;;;;;968513;146;27415;-78
2024/01/18 00:09:44;;;;;;;10.27;9.23;;;3.90;99.90;;;;;;967255;145;27390;-87
2024/01/18 00:12:11;;;;;;;12.40;10.07;;;3.90;99.90;;;;;;969821;146;27403;-85
2024/01/18 00:14:37;;;;;;;10.57;9.47;;;3.90;99.90;;;;;;967081;146;27262;-84
2024/01/18 00:17:04;;;;;;;13.00;10.13;;;3.90;99.90;;;;;;969178;146;27303;-86
2024/01/18 00:19:31;;;;;;;12.17;10.00;;;3.90;99.90;;;;;;969406;146;27294;-86
2024/01/18 00:21:57;;;;;;;10.70;9.60;;;3.90;99.90;;;;;;968880;145;27297;-85
2024/01/18 00:24:24;;;;;;;10.60;9.17;;;3.90;99.90;;;;;;972135;146;27334;-81
2024/01/18 00:26:50;;;;;;;11.13;9.87;;;3.90;99.90;;;;;;968851;146;27443;-85
2024/01/18 00:29:17;;;;;;;12.20;9.53;;;3.90;99.90;;;;;;970726;146;27306;-85
2024/01/18 00:31:43;;;;;;;11.37;10.03;;;3.90;99.90;;;;;;969206;146;27290;-86
2024/01/18 00:34:10;;;;;;;10.77;9.73;;;3.90;99.90;;;;;;968510;146;27345;-86
2024/01/18 00:36:37;;;;;;;11.67;9.70;;;3.90;99.90;;;;;;968075;146;27785;-86
2024/01/18 00:39:09;;;;;;;13.03;10.43;;;3.90;99.90;;;;;;966804;146;27749;-86
2024/01/18 00:41:32;;;;;;;12.27;10.13;;;3.90;99.90;;;;;;966116;146;27326;-87
2024/01/18 00:43:59;;;;;;;10.87;9.53;;;3.90;99.90;;;;;;964858;146;27373;-84
2024/01/18 00:46:26;;;;;;;12.40;11.10;;;4.00;99.90;;;;;;966155;147;27306;-85
2024/01/18 00:48:52;;;;;;;11.23;9.87;;;4.00;99.90;;;;;;963924;147;27429;-85
2024/01/18 00:51:19;;;;;;;11.90;10.33;;;4.00;99.90;;;;;;965683;146;27243;-86
2024/01/18 00:53:45;;;;;;;10.60;9.57;;;4.00;99.90;;;;;;962226;147;27247;-86
2024/01/18 00:56:12;;;;;;;13.00;10.37;;;4.00;99.90;;;;;;964215;147;27321;-81
2024/01/18 00:58:40;;;;;;;12.10;10.37;;;4.00;99.90;;;;;;964615;146;27330;-78
2024/01/18 01:01:05;;;;;;;13.33;10.67;;;4.00;99.90;;;;;;964927;146;27291;-79
2024/01/18 01:03:32;;;;;;;10.83;9.57;;;4.00;99.90;;;;;;965708;147;27459;-78
2024/01/18 01:05:58;;;;;;;11.03;9.13;;;4.00;99.90;;;;;;963131;146;27269;-80
2024/01/18 01:08:25;;;;;;;11.03;9.83;;;4.00;99.90;;;;;;964450;147;27382;-78
2024/01/18 01:10:52;;;;;;;13.73;10.43;;;4.00;99.90;;;;;;965063;147;27317;-78
2024/01/18 01:13:18;;;;;;;11.57;10.13;;;4.00;99.90;;;;;;964976;147;27305;-78
2024/01/18 01:15:45;;;;;;;11.03;9.87;;;4.00;99.90;;;;;;966117;147;27343;-79
2024/01/18 01:18:11;;;;;;;10.97;9.80;;;4.00;99.90;;;;;;963408;147;27321;-82
2024/01/18 01:20:38;;;;;;;10.23;9.23;;;4.00;99.90;;;;;;965270;147;27415;-86
2024/01/18 01:23:04;;;;;;;10.60;9.17;;;4.00;99.90;;;;;;964802;146;27262;-86
2024/01/18 01:25:31;;;;;;;12.87;10.53;;;4.00;99.90;;;;;;963424;147;27786;-86
2024/01/18 01:27:58;;;;;;;11.47;10.30;;;4.00;99.90;;;;;;965985;147;27308;-83
2024/01/18 01:30:24;;;;;;;11.23;9.73;;;4.00;99.90;;;;;;964983;147;27314;-87
2024/01/18 01:32:51;;;;;;;11.30;9.70;;;4.00;99.90;;;;;;966044;146;27267;-84
2024/01/18 01:35:17;;;;;;;14.00;10.50;;;4.00;99.90;;;;;;965045;147;27223;-85
2024/01/18 01:37:44;;;;;;;10.77;9.67;;;3.90;99.90;;;;;;964414;147;27267;-84
2024/01/18 01:40:11;;;;;;;10.83;9.13;;;3.90;99.90;;;;;;964930;147;27329;-86
2024/01/18 01:42:37;;;;;;;11.07;9.73;;;3.90;99.90;;;;;;966569;146;27449;-86
2024/01/18 01:45:04;;;;;;;13.13;10.50;;;3.90;99.90;;;;;;969204;146;27386;-86
2024/01/18 01:47:31;;;;;;;11.83;9.73;;;3.90;99.90;;;;;;968957;146;27293;-85
2024/01/18 01:49:57;;;;;;;10.70;9.60;;;3.90;99.90;;;;;;969030;146;27313;-82
2024/01/18 01:52:24;;;;;;;10.80;9.17;;;3.90;99.90;;;;;;969243;146;27317;-85
2024/01/18 01:54:50;;;;;;;12.80;9.77;;;3.90;99.90;;;;;;970080;146;27367;-86
2024/01/18 01:57:17;;;;;;;11.40;10.07;;;3.90;99.90;;;;;;971459;146;27305;-83
2024/01/18 01:59:43;;;;;;;13.13;10.20;;;3.90;99.90;;;;;;971596;146;27332;-83
2024/01/18 02:02:10;;;;;;;10.70;8.90;;;3.90;99.90;;;;;;968160;146;27429;-86
2024/01/18 02:04:36;;;;;;;11.03;9.50;;;3.90;99.90;;;;;;969961;146;27328;-86
2024/01/18 02:07:03;;;;;;;11.17;8.93;;;3.90;99.90;;;;;;967908;146;27241;-86
2024/01/18 02:09:30;;;;;;;11.73;9.60;;;3.90;99.90;;;;;;967918;146;27392;-85
2024/01/18 02:11:56;;;;;;;12.73;9.80;;;3.90;99.90;;;;;;969598;146;27277;-83
2024/01/18 02:14:23;;;;;;;11.23;8.87;;;3.90;99.90;;;;;;968796;146;27422;-86
2024/01/18 02:16:49;;;;;;;11.00;9.40;;;3.90;99.90;;;;;;968196;146;27299;-85
2024/01/18 02:19:16;;;;;;;11.30;8.97;;;3.90;99.90;;;;;;969847;146;27349;-85
2024/01/18 02:21:43;;;;;;;11.27;9.40;;;3.90;99.90;;;;;;969975;146;27289;-84
2024/01/18 02:24:21;;;;;;;11.73;9.73;;;3.90;99.90;;;;;;968483;146;27333;-86
2024/01/18 02:26:48;;;;;;;11.27;9.47;;;3.90;99.90;;;;;;970017;146;27312;-86
2024/01/18 02:29:14;;;;;;;11.27;9.67;;;3.90;99.90;;;;;;970288;146;27281;-86
2024/01/18 02:31:41;;;;;;;13.13;9.20;;;3.90;99.90;;;;;;970010;146;27277;-80
2024/01/18 02:34:10;;;;;;;12.37;9.67;;;3.90;99.90;;;;;;969671;146;27725;-82
2024/01/18 02:36:37;;;;;;;10.60;9.07;;;3.90;99.90;;;;;;967177;146;27413;-79
2024/01/18 02:39:03;;;;;;;13.37;9.43;;;3.90;99.90;;;;;;967000;146;27255;-79
2024/01/18 02:41:31;;;;;;;11.77;9.60;;;3.90;99.90;;;;;;969083;144;27301;-83
2024/01/18 02:43:57;;;;;;;11.03;9.27;;;3.90;99.90;;;;;;966643;146;27377;-78
2024/01/18 02:46:23;;;;;;;11.67;9.80;;;3.90;99.90;;;;;;967952;146;27358;-79
2024/01/18 02:48:50;;;;;;;10.10;9.00;;;3.90;99.90;;;;;;967177;146;27230;-78
2024/01/18 02:51:16;;;;;;;12.40;9.70;;;3.90;99.90;;;;;;966152;146;27293;-79
2024/01/18 02:53:43;;;;;;;11.77;9.50;;;3.90;99.90;;;;;;965862;146;27412;-80
2024/01/18 02:56:09;;;;;;;11.13;9.30;;;3.90;99.90;;;;;;967045;146;27355;-78
2024/01/18 02:58:36;;;;;;;10.40;9.30;;;3.90;99.90;;;;;;966371;145;27287;-79
2024/01/18 03:01:03;;;;;;;11.60;9.73;;;4.00;99.90;;;;;;965359;145;27323;-79
2024/01/18 03:03:29;;;;;;;10.30;8.83;;;4.00;99.90;;;;;;967166;145;27294;-82
2024/01/18 03:05:56;;;;;;;10.53;9.33;;;4.00;99.90;;;;;;966057;145;27421;-78
2024/01/18 03:08:22;;;;;;;9.83;8.40;;;3.90;99.90;;;;;;965261;145;27455;-79
2024/01/18 03:10:49;;;;;;;10.83;8.90;;;3.90;99.90;;;;;;967110;146;27266;-79
2024/01/18 03:13:15;;;;;;;11.20;9.53;;;3.90;99.90;;;;;;968167;145;27258;-80
2024/01/18 03:15:42;;;;;;;11.10;9.83;;;3.90;99.90;;;;;;966053;146;27330;-79
2024/01/18 03:18:09;;;;;;;10.30;9.07;;;3.90;99.90;;;;;;967381;146;27308;-78
2024/01/18 03:20:35;;;;;;;9.70;8.70;;;3.90;99.90;;;;;;966918;146;27266;-86
2024/01/18 03:23:02;;;;;;;10.43;8.83;;;3.90;99.90;;;;;;968688;143;27277;-86
2024/01/18 03:25:28;;;;;;;9.90;8.50;;;3.90;99.90;;;;;;966024;146;27436;-86
2024/01/18 03:27:55;;;;;;;10.60;8.93;;;3.90;99.90;;;;;;968195;145;27873;-86
2024/01/18 03:30:22;;;;;;;9.43;8.37;;;3.90;99.90;;;;;;968290;145;27249;-86
2024/01/18 03:32:48;;;;;;;8.73;7.83;;;3.90;99.90;;;;;;966847;146;27355;-86
2024/01/18 03:35:15;;;;;;;10.13;8.53;;;3.80;99.90;;;;;;966429;145;27636;-83
2024/01/18 03:37:41;;;;;;;10.23;8.37;;;3.80;99.90;;;;;;967063;146;27297;-87
2024/01/18 03:40:08;;;;;;;9.37;7.90;;;3.80;99.90;;;;;;967218;145;27266;-80
2024/01/18 03:42:35;;;;;;;8.07;7.27;;;3.80;99.90;;;;;;966207;146;27307;-80
2024/01/18 03:45:01;;;;;;;8.97;7.63;;;3.80;99.90;;;;;;959718;146;27378;-82
2024/01/18 03:47:28;;;;;;;9.00;7.57;;;3.80;99.90;;;;;;960356;146;27316;-80
2024/01/18 03:49:54;;;;;;;9.00;7.03;;;3.80;99.90;;;;;;959835;147;27310;-80
2024/01/18 03:52:21;;;;;;;7.67;6.73;;;3.80;99.90;;;;;;959315;148;27295;-80
2024/01/18 03:54:48;;;;;;;8.70;6.93;;;3.70;99.90;;;;;;961311;148;27297;-81
2024/01/18 03:57:14;;;;;;;8.20;7.13;;;3.70;99.90;;;;;;959190;146;27898;-80
2024/01/18 03:59:41;;;;;;;7.57;6.30;;;3.70;99.90;;;;;;959430;146;27223;-80
2024/01/18 04:02:07;;;;;;;6.60;6.00;;;3.70;99.90;;;;;;959090;146;27253;-80
2024/01/18 04:04:34;;;;;;;6.23;5.63;;;3.70;99.90;;;;;;959424;146;27273;-81
2024/01/18 04:07:00;;;;;;;6.20;5.47;;;3.70;99.90;;;;;;959182;148;27314;-84
2024/01/18 04:09:27;;;;;;;6.57;5.83;;;3.70;99.90;;;;;;961338;147;27450;-79
2024/01/18 04:11:54;;;;;;;7.67;5.77;;;3.70;99.90;;;;;;961201;148;27281;-80
2024/01/18 04:14:20;;;;;;;6.20;5.53;;;3.60;99.90;;;;;;959441;148;27831;-80
2024/01/18 04:16:47;;;;;;;5.70;5.10;;;3.60;99.90;;;;;;960400;148;27359;-82
2024/01/18 04:19:13;;;;;;;5.33;4.83;;;3.60;99.90;;;;;;959210;147;27683;-80
2024/01/18 04:21:40;;;;;;;7.10;6.07;;;3.60;99.90;;;;;;960099;146;27326;-80
2024/01/18 04:24:06;;;;;;;6.03;5.43;;;3.60;99.90;;;;;;959973;148;27344;-80
2024/01/18 04:26:34;;;;;;;6.57;5.17;;;3.60;99.90;;;;;;959727;147;27729;-82
2024/01/18 04:29:00;;;;;;;5.67;5.03;;;3.60;99.90;;;;;;959635;146;27340;-79
2024/01/18 04:31:26;;;;;;;6.10;5.50;;;3.60;99.90;;;;;;960096;146;27426;-79
2024/01/18 04:33:53;;;;;;;5.30;4.70;;;3.50;99.90;;;;;;960847;146;27382;-80
2024/01/18 04:36:20;;;;;;;5.37;4.87;;;3.50;99.90;;;;;;960555;148;27283;-81
2024/01/18 04:38:46;;;;;;;5.87;5.27;;;3.50;99.90;;;;;;961509;146;27348;-83
2024/01/18 04:41:13;;;;;;;5.70;5.13;;;3.50;99.90;;;;;;960834;147;27393;-80
2024/01/18 04:43:39;;;;;;;6.43;5.67;;;3.50;99.90;;;;;;961233;147;27302;-81
2024/01/18 04:46:06;;;;;;;5.33;4.83;;;3.50;99.90;;;;;;964494;146;27282;-80
2024/01/18 04:48:32;;;;;;;5.43;4.93;;;3.50;99.90;;;;;;962142;147;27278;-82
2024/01/18 04:50:59;;;;;;;7.07;5.67;;;3.50;99.90;;;;;;965460;147;27302;-79
2024/01/18 04:53:25;;;;;;;5.43;4.93;;;3.50;99.90;;;;;;966230;147;27602;-79
2024/01/18 04:55:53;;;;;;;5.67;5.07;;;3.50;99.90;;;;;;963476;146;27275;-80
2024/01/18 04:58:19;;;;;;;5.77;5.13;;;3.50;99.90;;;;;;964846;147;27234;-80
2024/01/18 05:00:46;;;;;;;4.80;4.37;;;3.50;99.90;;;;;;964003;146;27378;-79
2024/01/18 05:05:41;;;;;;;8.23;7.42;;;3.50;99.90;;;;;;990294;140;35678;-80
2024/01/18 05:08:07;;;;;;;7.03;6.33;;;3.40;99.90;;;;;;976853;143;28705;-80
2024/01/18 05:10:33;;;;;;;7.50;6.73;;;3.40;99.90;;;;;;966155;147;27240;-79
2024/01/18 05:13:00;;;;;;;6.27;5.57;;;3.40;99.90;;;;;;966776;145;27249;-82
2024/01/18 05:15:26;;;;;;;6.50;5.73;;;3.40;99.90;;;;;;966753;145;27397;-82
2024/01/18 05:17:54;;;;;;;5.70;5.20;;;3.50;99.90;;;;;;967281;145;27313;-80
2024/01/18 05:20:19;;;;;;;7.90;5.53;;;3.50;99.90;;;;;;966516;145;27366;-79
2024/01/18 05:22:46;;;;;;;5.87;5.27;;;3.50;99.90;;;;;;966767;145;27349;-80
2024/01/18 05:25:13;;;;;;;6.33;5.47;;;3.50;99.90;;;;;;965768;145;27423;-83
2024/01/18 05:27:39;;;;;;;6.13;5.53;;;3.50;99.90;;;;;;966712;145;27409;-80
2024/01/18 05:30:07;;;;;;;6.53;5.53;;;3.50;99.90;;;;;;966427;145;27378;-79
2024/01/18 05:32:32;;;;;;;6.63;5.93;;;3.50;99.90;;;;;;966501;145;27431;-79
2024/01/18 05:35:04;;;;;;;6.60;5.33;;;3.50;99.90;;;;;;966162;145;27349;-81
2024/01/18 05:37:30;;;;;;;5.80;5.20;;;3.50;99.90;;;;;;966658;145;27373;-80
2024/01/18 05:39:56;;;;;;;6.73;5.73;;;3.50;99.90;;;;;;966582;145;27340;-83
2024/01/18 05:42:27;;;;;;;9.50;6.60;;;3.40;99.90;;;;;;966604;145;27324;-84
2024/01/18 05:44:52;;;;;;;7.37;5.90;;;3.40;99.90;;;;;;966081;145;27352;-85
2024/01/18 05:47:20;;;;;;;6.07;5.47;;;3.40;99.90;;;;;;966054;145;27261;-85
2024/01/18 05:49:45;;;;;;;6.73;5.77;;;3.40;99.90;;;;;;966408;145;27335;-82
2024/01/18 05:52:12;;;;;;;6.60;6.00;;;3.40;99.90;;;;;;966623;145;27872;-86
2024/01/18 05:54:38;;;;;;;8.13;6.23;;;3.40;99.90;;;;;;965545;145;27269;-85
2024/01/18 05:57:05;;;;;;;5.93;5.33;;;3.40;99.90;;;;;;965967;145;27269;-86
2024/01/18 05:59:32;;;;;;;8.63;6.43;;;3.30;99.90;;;;;;966653;148;27306;-85
2024/01/18 06:01:59;;;;;;;9.03;6.10;;;3.30;99.90;;;;;;966623;145;27325;-80
2024/01/18 06:04:25;;;;;;;6.83;6.13;;;3.30;99.90;;;;;;966477;145;27340;-79
2024/01/18 06:06:51;;;;;;;7.77;6.10;;;3.30;99.90;;;;;;967320;145;27338;-80
2024/01/18 06:09:18;;;;;;;7.63;6.27;;;3.30;99.90;;;;;;966539;145;27376;-82
2024/01/18 06:11:44;;;;;;;7.77;6.77;;;3.30;99.90;;;;;;966331;147;27415;-80
2024/01/18 06:14:15;;;;;;;6.60;5.70;;;3.20;99.90;;;;;;966511;145;27285;-80
2024/01/18 06:16:41;;;;;;;6.63;5.77;;;3.20;99.90;;;;;;966180;145;27349;-80
2024/01/18 06:19:07;;;;;;;6.47;5.70;;;3.20;99.90;;;;;;965966;145;27283;-82
2024/01/18 06:21:34;;;;;;;7.50;5.90;;;3.20;99.90;;;;;;966391;145;27336;-80
2024/01/18 06:24:01;;;;;;;7.47;5.83;;;3.10;99.90;;;;;;966688;145;27782;-80
2024/01/18 06:26:27;;;;;;;7.63;6.20;;;3.10;99.90;;;;;;965436;148;27366;-79
2024/01/18 06:28:53;;;;;;;7.60;6.03;;;3.10;99.90;;;;;;966107;145;27301;-80
2024/01/18 06:31:26;;;;;;;7.37;6.20;;;3.10;99.90;;;;;;966438;145;27324;-80
2024/01/18 06:33:47;;;;;;;8.73;6.30;;;3.10;99.90;;;;;;965523;145;27321;-80
2024/01/18 06:36:14;;;;;;;6.77;5.97;;;3.00;99.90;;;;;;965858;145;27278;-79
2024/01/18 06:38:40;;;;;;;8.60;6.80;;;3.00;99.90;;;;;;966269;145;27315;-79
2024/01/18 06:41:06;;;;;;;8.87;6.63;;;3.00;99.90;;;;;;966276;145;27261;-82
2024/01/18 06:43:33;;;;;;;9.43;6.73;;;3.00;99.90;;;;;;966514;145;27366;-79
2024/01/18 06:46:00;;;;;;;6.90;6.07;;;3.00;99.90;;;;;;966011;145;27274;-79
2024/01/18 06:48:26;;;;;;;7.93;6.80;;;2.90;99.90;;;;;;966449;147;27216;-79
2024/01/18 06:50:53;;;;;;;8.23;6.27;;;2.90;99.90;;;;;;965340;145;27414;-81
2024/01/18 06:53:19;;;;;;;7.03;6.20;;;2.90;99.90;;;;;;966195;145;27405;-86
2024/01/18 06:55:46;;;;;;;8.17;6.63;;;2.90;99.90;;;;;;965959;148;28579;-87
2024/01/18 06:58:12;;;;;;;9.17;7.50;;;2.80;99.90;;;;;;966666;145;27269;-85
2024/01/18 07:00:39;;;;;;;7.93;6.73;;;2.80;99.90;;;;;;966187;145;27253;-85
2024/01/18 07:03:07;;;;;;;7.93;6.93;;;2.80;99.90;;;;;;966477;147;27413;-82
2024/01/18 07:05:32;;;;;;;8.93;6.93;;;2.80;99.90;;;;;;966102;145;27367;-86
2024/01/18 07:07:59;;;;;;;9.90;7.77;;;2.80;99.90;;;;;;965248;145;27301;-85
2024/01/18 07:10:25;;;;;;;8.00;6.47;;;2.80;99.90;;;;;;966159;145;27293;-86
2024/01/18 07:12:52;;;;;;;7.83;6.57;;;2.80;99.90;;;;;;966506;145;27314;-79
2024/01/18 07:15:19;;;;;;;7.50;6.53;;;2.70;99.90;;;;;;967159;145;27343;-85
2024/01/18 07:17:45;;;;;;;9.13;6.70;;;2.70;99.90;;;;;;966176;148;27270;-85
2024/01/18 07:20:12;;;;;;;9.00;6.83;;;2.70;99.90;;;;;;965715;145;27285;-85
2024/01/18 07:22:38;;;;;;;8.23;7.03;;;2.70;99.90;;;;;;966520;145;27285;-84
2024/01/18 07:25:05;;;;;;;7.67;6.57;;;2.70;99.90;;;;;;965596;145;27759;-81
2024/01/18 07:27:31;;;;;;;8.63;7.40;;;2.70;99.90;;;;;;965408;145;27946;-86
2024/01/18 07:29:58;;;;;;;9.43;7.57;;;2.60;99.90;;;;;;965998;145;27361;-84
2024/01/18 07:32:25;;;;;;;9.87;6.50;;;2.70;99.90;;;;;;966503;145;27369;-84
2024/01/18 07:34:51;;;;;;;9.37;7.03;;;2.60;99.90;;;;;;966371;145;27324;-81
2024/01/18 07:37:18;;;;;;;8.57;6.83;;;2.60;99.90;;;;;;966042;145;27409;-85
2024/01/18 07:39:44;;;;;;;7.97;6.50;;;2.60;99.90;;;;;;965513;145;27299;-81
2024/01/18 07:42:11;;;;;;;7.73;6.40;;;2.60;99.90;;;;;;966735;145;27373;-83
2024/01/18 07:44:39;;;;;;;7.93;6.83;;;2.50;99.90;;;;;;966543;147;27278;-83
2024/01/18 07:47:04;;;;;;;9.30;7.03;;;2.50;99.90;;;;;;966017;145;27305;-85
2024/01/18 07:49:31;;;;;;;6.13;5.53;;;2.50;99.90;;;;;;965723;145;27978;-85
2024/01/18 07:51:57;;;;;;;9.67;7.03;;;2.50;99.90;;;;;;965782;145;27270;-85
2024/01/18 07:54:24;;;;;;;9.37;6.97;;;2.50;99.90;;;;;;931643;150;27334;-84
2024/01/18 07:56:50;;;;;;;8.23;7.07;;;2.50;99.90;;;;;;959225;149;27437;-85
2024/01/18 07:59:17;;;;;;;8.20;7.10;;;2.40;99.90;;;;;;966145;145;27308;-85
2024/01/18 08:01:45;;;;;;;9.03;8.00;;;2.40;99.90;;;;;;966612;147;27285;-78
2024/01/18 08:04:10;;;;;;;11.23;8.17;;;2.40;99.90;;;;;;966045;145;27250;-78
2024/01/18 08:06:37;;;;;;;10.53;8.60;;;2.40;99.90;;;;;;973110;144;27329;-80
2024/01/18 08:09:03;;;;;;;9.07;7.53;;;2.40;99.90;;;;;;966747;145;27429;-77
2024/01/18 08:11:30;;;;;;;10.77;8.70;;;2.40;99.90;;;;;;963137;146;27358;-78
2024/01/18 08:13:57;;;;;;;11.03;8.37;;;2.40;99.90;;;;;;962827;145;27257;-78
2024/01/18 08:16:23;;;;;;;10.07;8.53;;;2.40;99.90;;;;;;962910;145;27260;-81
2024/01/18 08:18:50;;;;;;;12.03;8.83;;;2.40;99.90;;;;;;963173;146;27401;-78
2024/01/18 08:21:16;;;;;;;11.67;8.93;;;2.40;99.90;;;;;;962476;145;27413;-78
2024/01/18 08:23:43;;;;;;;10.83;8.47;;;2.40;99.90;;;;;;962935;145;27245;-78
2024/01/18 08:26:10;;;;;;;11.63;8.40;;;2.40;99.90;;;;;;962806;145;27337;-78
2024/01/18 08:28:36;;;;;;;12.33;10.27;;;2.40;99.90;;;;;;962720;145;27325;-78
2024/01/18 08:31:03;;;;;;;10.77;8.43;;;2.40;99.90;;;;;;962686;145;28226;-77
2024/01/18 08:33:29;;;;;;;11.40;10.13;;;2.40;99.90;;;;;;962890;149;27366;-78
2024/01/18 08:35:56;;;;;;;12.70;9.10;;;2.40;99.90;;;;;;963040;145;27334;-78
2024/01/18 08:38:22;;;;;;;12.70;10.13;;;2.40;99.90;;;;;;962825;145;27405;-82
2024/01/18 08:40:49;;;;;;;12.17;10.03;;;2.40;99.90;;;;;;962583;146;27309;-78
2024/01/18 08:43:17;;;;;;;11.23;8.87;;;2.40;99.90;;;;;;961860;145;27377;-78
2024/01/18 08:45:42;;;;;;;12.87;10.73;;;2.40;99.90;;;;;;962289;149;27358;-79
2024/01/18 08:48:09;;;;;;;12.57;10.23;;;2.40;99.90;;;;;;962827;147;27281;-80
2024/01/18 08:50:35;;;;;;;11.20;9.20;;;2.40;99.90;;;;;;962998;146;27317;-79
2024/01/18 08:53:02;;;;;;;15.70;10.27;;;2.50;99.90;;;;;;938711;151;27912;-79
2024/01/18 08:55:29;;;;;;;14.50;10.37;;;2.50;99.90;;;;;;938841;150;27407;-80
2024/01/18 08:57:55;;;;;;;13.10;9.37;;;2.50;99.90;;;;;;962840;145;27282;-79
2024/01/18 09:00:22;;;;;;;13.43;10.13;;;2.50;99.90;;;;;;963314;145;27402;-82
2024/01/18 09:02:48;;;;;;;14.13;10.27;;;2.50;99.90;;;;;;962920;145;27335;-81
2024/01/18 09:05:15;;;;;;;13.33;10.30;;;2.50;99.90;;;;;;963272;145;27262;-78
2024/01/18 09:07:41;;;;;;;13.53;10.23;;;2.50;99.90;;;;;;960663;146;27289;-79
2024/01/18 09:10:09;;;;;;;14.70;9.90;;;2.50;99.90;;;;;;960112;146;27306;-81
2024/01/18 09:12:35;;;;;;;14.83;10.67;;;2.50;99.90;;;;;;959010;146;27334;-86
2024/01/18 09:15:02;;;;;;;14.73;10.63;;;2.60;99.90;;;;;;960254;145;27309;-86
2024/01/18 09:17:28;;;;;;;12.93;11.10;;;2.60;99.90;;;;;;959230;147;27719;-85
2024/01/18 09:19:54;;;;;;;14.43;10.30;;;2.60;99.90;;;;;;959907;145;27296;-84
2024/01/18 09:22:21;;;;;;;14.03;10.77;;;2.60;99.90;;;;;;959305;146;27306;-81
2024/01/18 09:24:49;;;;;;;14.47;10.20;;;2.70;99.90;;;;;;959243;147;27345;-83
2024/01/18 09:27:14;;;;;;;12.77;10.60;;;2.70;99.90;;;;;;960160;148;27263;-84
2024/01/18 09:29:41;;;;;;;14.07;10.83;;;2.70;99.90;;;;;;959810;146;27250;-83
2024/01/18 09:32:07;;;;;;;14.03;11.13;;;2.70;99.90;;;;;;958492;146;27321;-82
2024/01/18 09:34:34;;;;;;;16.27;11.40;;;2.80;99.90;;;;;;957304;146;27782;-83
2024/01/18 09:37:01;;;;;;;15.13;11.67;;;2.80;99.90;;;;;;959257;145;27302;-83
2024/01/18 09:39:27;;;;;;;14.33;11.90;;;2.80;99.90;;;;;;957772;148;27262;-82
2024/01/18 09:41:54;;;;;;;14.83;11.40;;;2.80;99.90;;;;;;956660;147;27411;-82
2024/01/18 09:44:24;;;;;;;16.03;11.87;;;2.80;99.90;;;;;;958127;146;27329;-83
2024/01/18 09:46:50;;;;;;;14.57;12.27;;;2.80;99.90;;;;;;959318;148;27352;-83
2024/01/18 09:49:16;;;;;;;15.43;12.07;;;2.80;99.90;;;;;;959385;146;27383;-83
2024/01/18 09:51:43;;;;;;;14.60;11.33;;;2.80;99.90;;;;;;959572;145;27254;-83
2024/01/18 09:54:09;;;;;;;15.20;11.53;;;2.90;99.90;;;;;;958549;147;27340;-84
2024/01/18 09:56:36;;;;;;;16.30;12.20;;;2.90;99.90;;;;;;958213;148;27310;-83
2024/01/18 09:59:04;;;;;;;16.77;12.53;;;2.90;99.90;;;;;;959627;145;27298;-83
2024/01/18 10:01:29;;;;;;;14.83;11.23;;;2.90;99.90;;;;;;959174;146;27424;-82
2024/01/18 10:03:56;;;;;;;14.57;11.00;;;2.90;99.90;;;;;;959046;146;27410;-83
2024/01/18 10:06:22;;;;;;;12.63;9.87;;;3.00;99.90;;;;;;959211;145;27355;-84
2024/01/18 10:08:49;;;;;;;13.53;10.70;;;3.00;99.90;;;;;;956822;147;27426;-82
2024/01/18 10:11:15;;;;;;;12.90;10.27;;;3.00;99.90;;;;;;957011;148;27869;-83
2024/01/18 10:13:54;;;;;;;14.10;10.47;;;3.00;99.90;;;;;;957082;148;27314;-83
2024/01/18 10:16:30;;;;;;;15.17;11.43;;;3.00;99.90;;;;;;956644;146;28011;-83
2024/01/18 10:19:00;;;;;;;14.40;10.10;;;3.10;99.90;;;;;;956106;147;27235;-83
2024/01/18 10:21:26;;;;;;;12.87;10.33;;;3.10;99.90;;;;;;956254;147;27464;-82
2024/01/18 10:23:53;;;;;;;11.57;9.93;;;3.10;99.90;;;;;;957856;146;27354;-80
2024/01/18 10:26:19;;;;;;;13.70;10.40;;;3.10;99.90;;;;;;956664;148;27315;-80
2024/01/18 10:28:45;;;;;;;13.07;10.57;;;3.20;99.90;;;;;;956874;146;27858;-80
2024/01/18 10:31:12;;;;;;;11.27;9.57;;;3.20;99.90;;;;;;957098;147;27243;-80
2024/01/18 10:33:38;;;;;;;12.70;10.37;;;3.20;99.90;;;;;;957593;146;27282;-82
2024/01/18 10:36:05;;;;;;;11.17;9.90;;;3.20;99.90;;;;;;958006;146;27411;-80
2024/01/18 10:38:35;;;;;;;12.37;10.33;;;3.20;99.90;;;;;;957903;146;27242;-80
2024/01/18 10:40:59;;;;;;;12.47;9.93;;;3.30;99.90;;;;;;957396;148;27263;-80
2024/01/18 10:43:31;;;;;;;13.33;10.80;;;3.30;99.90;;;;;;957568;149;27271;-84
2024/01/18 10:45:57;;;;;;;11.70;10.43;;;3.30;99.90;;;;;;958098;146;27338;-85
2024/01/18 10:48:24;;;;;;;13.77;10.67;;;3.30;99.90;;;;;;957521;146;27390;-85
2024/01/18 10:50:53;;;;;;;12.37;10.63;;;3.30;99.90;;;;;;956751;146;27243;-85
2024/01/18 10:53:20;;;;;;;14.20;11.73;;;3.40;99.90;;;;;;957642;146;27353;-82
2024/01/18 10:55:46;;;;;;;14.33;11.73;;;3.40;99.90;;;;;;958179;146;27341;-86
2024/01/18 10:58:13;;;;;;;14.37;11.80;;;3.40;99.90;;;;;;958139;146;27356;-85
2024/01/18 11:00:39;;;;;;;15.20;11.80;;;3.40;99.90;;;;;;958187;146;27375;-85
2024/01/18 11:03:06;;;;;;;14.60;11.70;;;3.40;99.90;;;;;;957772;146;27279;-84
2024/01/18 11:05:32;;;;;;;14.17;12.13;;;3.50;99.90;;;;;;957251;146;27342;-86
2024/01/18 11:07:59;;;;;;;14.30;12.13;;;3.50;99.90;;;;;;959144;146;27378;-86
2024/01/18 11:10:26;;;;;;;15.37;12.37;;;3.50;99.90;;;;;;963197;145;27257;-85
2024/01/18 11:12:52;;;;;;;15.43;12.37;;;3.50;99.90;;;;;;962458;145;27282;-85
2024/01/18 11:15:19;;;;;;;14.57;12.00;;;3.50;99.90;;;;;;962991;146;27324;-85
2024/01/18 11:17:45;;;;;;;15.87;13.00;;;3.50;99.90;;;;;;963141;146;27672;-85
2024/01/18 11:20:12;;;;;;;17.30;13.00;;;3.50;99.90;;;;;;962795;145;27289;-85
2024/01/18 11:22:41;;;;;;;15.83;12.37;;;3.60;99.90;;;;;;962947;145;27276;-84
2024/01/18 11:25:05;;;;;;;15.83;13.23;;;3.60;99.90;;;;;;961692;145;27357;-85
2024/01/18 11:27:38;;;;;;;16.80;13.10;;;3.60;99.90;;;;;;957899;148;27317;-85
2024/01/18 11:30:13;;;;;;;18.23;13.27;;;3.60;99.90;;;;;;961069;145;27352;-84
2024/01/18 11:32:40;;;;;;;15.53;13.00;;;3.60;99.90;;;;;;949096;147;27321;-84
2024/01/18 11:35:09;;;;;;;14.63;12.27;;;3.60;99.90;;;;;;962490;145;27332;-82
2024/01/18 11:37:36;;;;;;;18.80;14.33;;;3.60;99.90;;;;;;962293;149;27297;-84
2024/01/18 11:40:05;;;;;;;16.37;13.87;;;3.60;99.90;;;;;;962461;145;27274;-85
2024/01/18 11:42:29;;;;;;;16.43;13.77;;;3.60;99.90;;;;;;961182;145;27294;-84
2024/01/18 11:45:01;;;;;;;16.83;13.87;;;3.60;99.90;;;;;;962981;146;27438;-82
2024/01/18 11:47:28;;;;;;;18.67;14.20;;;3.60;99.90;;;;;;962747;146;27275;-85
2024/01/18 11:49:54;;;;;;;17.80;13.97;;;3.70;99.90;;;;;;962625;146;27321;-85
2024/01/18 11:52:24;;;;;;;16.97;13.70;;;3.70;99.90;;;;;;963233;145;27452;-83
2024/01/18 11:54:50;;;;;;;18.40;14.90;;;3.80;99.90;;;;;;962666;145;27345;-85
2024/01/18 11:57:17;;;;;;;18.10;13.97;;;3.80;99.90;;;;;;961825;146;27321;-85
2024/01/18 11:59:45;;;;;;;16.47;12.80;;;3.90;99.90;;;;;;962624;146;27313;-85
2024/01/18 12:02:13;;;;;;;16.00;13.27;;;3.90;99.90;;;;;;962492;145;27388;-85
2024/01/18 12:04:40;;;;;;;15.13;12.90;;;3.90;99.90;;;;;;962501;146;27438;-84
2024/01/18 12:07:09;;;;;;;16.97;13.30;;;4.00;99.90;;;;;;962925;147;27317;-85
2024/01/18 12:09:36;;;;;;;17.57;13.43;;;4.00;99.90;;;;;;962705;146;27306;-85
2024/01/18 12:12:02;;;;;;;16.40;12.97;;;4.00;99.90;;;;;;963073;146;27291;-84
2024/01/18 12:14:29;;;;;;;17.00;13.83;;;4.10;99.90;;;;;;963063;145;27317;-85
2024/01/18 12:16:56;;;;;;;17.10;13.67;;;4.10;99.90;;;;;;962282;149;27436;-85
2024/01/18 12:19:37;;;;;;;15.83;12.70;;;4.10;99.90;;;;;;962538;146;27328;-85
2024/01/18 12:22:12;;;;;;;15.47;12.37;;;4.10;99.90;;;;;;962505;145;27322;-84
2024/01/18 12:24:39;;;;;;;16.47;11.83;;;4.10;99.90;;;;;;963157;145;27337;-86
2024/01/18 12:27:05;;;;;;;15.17;12.70;;;4.10;99.90;;;;;;962841;145;27285;-81
2024/01/18 12:29:35;;;;;;;15.37;12.53;;;4.10;99.90;;;;;;963100;145;27249;-81
2024/01/18 12:31:59;;;;;;;14.33;11.93;;;4.20;99.90;;;;;;961745;145;27359;-81
2024/01/18 12:34:25;;;;;;;16.77;13.20;;;4.20;99.90;;;;;;962903;146;27394;-83
2024/01/18 12:36:54;;;;;;;14.90;12.93;;;4.20;99.90;;;;;;962892;147;27290;-80
2024/01/18 12:39:21;;;;;;;11.50;10.30;;;4.30;99.90;;;;;;962064;145;27306;-81
2024/01/18 12:41:47;;;;;;;15.83;12.13;;;4.30;99.90;;;;;;963131;145;27302;-83
2024/01/18 12:44:14;;;;;;;14.50;12.23;;;4.40;99.90;;;;;;962237;147;27329;-84
2024/01/18 12:46:40;;;;;;;14.70;11.93;;;4.40;99.90;;;;;;962787;145;27388;-85